Great Falls, MT

6:05 PM MDT on September 04, 2015 (GMT -0600)
Great Falls South SIde | | Change Station
CLOSE
Current Station
Personal Weather Station
Location: Great Falls, MT
Elevation: 3399 ft
Nearby Weather Stations

Elev 3399 ft 47.50 °N, 111.27 °W | Updated 6 seconds ago

Overcast
Overcast
51.4 °F
Feels Like 51.4 °F
N
0.0
Wind Variable Wind from North
Gusts 3.0 mph

Today
High -- | Low -- °F
--% Chance of Precip.
Yesterday
High -- | Low -- °F
Precip. -- in
6:47 AM 7:59 PM
Waning Gibbous, 54% visible
Pressure 30.01 in
Visibility 10.0 miles
Clouds Scattered Clouds 500 ft
Mostly Cloudy 1200 ft
Overcast 6500 ft
Dew Point 48 °F
Humidity 88%
Rainfall 0.51 in
Snow Depth Not available.
UV 1 out of 12
Pollen 5.40 out of 12
Air Quality Not available.
Flu Activity Not available.
METAR KGTF 042353Z 02008KT 10SM SCT005 BKN012 OVC065 11/09 A3000 RMK AO2 RAE16 SLP163 P0000 60002 T01060094 10111 20100 52003
Pressure 30.01 in
Visibility 10.0 miles
Clouds Scattered Clouds 500 ft
Mostly Cloudy 1200 ft
Overcast 6500 ft
Dew Point 48 °F
Humidity 88%
Rainfall 0.51 in
Snow Depth Not available.
UV 1 out of 12
Pollen 5.40 out of 12
Air Quality Not available.
Flu Activity Not available.
METAR KGTF 042353Z 02008KT 10SM SCT005 BKN012 OVC065 11/09 A3000 RMK AO2 RAE16 SLP163 P0000 60002 T01060094 10111 20100 52003

10-Day Weather Forecast

×

Almanac

Astronomy

Sep. 04, 2015 Rise Set
Actual Time
Civil Twilight
Nautical Twilight
Astronomical Twilight
Moon
Length of Visible Light
Length of Day
Tomorrow will be .
, % of the Moon is Illuminated

Today's Extremes

State Highs State Lows

Community

WunderPhotos

Upload Photos

1,852,345 photos uploaded!

WunderBlogs® & News

Nearby

Air Quality

  Air Quality AQ Index Pollutant
Not available.

Snow Depth

Station Depth Elevation

Earthquake Activity

City Distance Mag. Time & Date
Minimum magnitude displayed is 2.5.

Coastal Water Temperatures

Place Temperature

Stations

Nearby Weather Stations

Station Location Temp. Windchill Dew Point Humidity Wind Precip. Elev Updated Type